createdAt,value
2017-08-29T00:02:20.808Z,14.67
2017-08-29T00:04:49.106Z,14.61
2017-08-29T00:07:18.017Z,14.59
2017-08-29T00:09:46.313Z,14.62
2017-08-29T00:12:14.628Z,14.66
2017-08-29T00:14:42.932Z,14.63
2017-08-29T00:17:11.261Z,14.57
2017-08-29T00:19:39.557Z,14.49
2017-08-29T00:22:07.878Z,14.43
2017-08-29T00:24:36.188Z,14.43
2017-08-29T00:27:04.513Z,14.38
2017-08-29T00:29:32.812Z,14.35
2017-08-29T00:32:01.101Z,14.32
2017-08-29T00:34:29.404Z,14.29
2017-08-29T00:36:57.708Z,14.29
2017-08-29T00:39:26.045Z,14.31
2017-08-29T00:41:54.350Z,14.34
2017-08-29T00:44:22.667Z,14.32
2017-08-29T00:46:50.984Z,14.33
2017-08-29T00:49:19.302Z,14.36
2017-08-29T00:51:47.612Z,14.35
2017-08-29T00:54:15.928Z,14.37
2017-08-29T00:56:44.229Z,14.38
2017-08-29T00:59:12.563Z,14.42
2017-08-29T01:01:40.867Z,14.36
2017-08-29T01:04:09.198Z,14.35
2017-08-29T01:06:37.498Z,14.32
2017-08-29T01:09:05.837Z,14.23
2017-08-29T01:11:34.203Z,14.18
2017-08-29T01:14:02.503Z,14.21
2017-08-29T01:16:30.818Z,14.25
2017-08-29T01:18:59.131Z,14.23
2017-08-29T01:21:27.455Z,14.22
2017-08-29T01:23:55.761Z,14.16
2017-08-29T01:26:24.130Z,14.17
2017-08-29T01:28:52.427Z,14.19
2017-08-29T01:31:20.747Z,14.19
2017-08-29T01:33:49.076Z,14.17
2017-08-29T01:36:17.479Z,14.14
2017-08-29T01:38:45.770Z,14.13
2017-08-29T01:41:14.089Z,14.17
2017-08-29T01:43:42.463Z,14.18
2017-08-29T01:46:10.789Z,14.05
2017-08-29T01:48:39.101Z,14.09
2017-08-29T01:51:07.409Z,14.10
2017-08-29T01:53:35.749Z,14.09
2017-08-29T01:56:04.058Z,14.02
2017-08-29T01:58:32.470Z,14.02
2017-08-29T02:01:00.780Z,14.03
2017-08-29T02:03:29.106Z,14.03
2017-08-29T02:05:57.409Z,14.03
2017-08-29T02:08:25.714Z,13.96
2017-08-29T02:10:54.032Z,13.88
2017-08-29T02:13:22.339Z,13.85
2017-08-29T02:15:50.652Z,13.83
2017-08-29T02:18:18.957Z,13.77
2017-08-29T02:20:47.277Z,13.77
2017-08-29T02:23:15.582Z,13.74
2017-08-29T02:25:43.894Z,13.66
2017-08-29T02:28:12.193Z,13.50
2017-08-29T02:30:40.504Z,13.35
2017-08-29T02:33:08.805Z,13.31
2017-08-29T02:35:37.099Z,13.37
2017-08-29T02:38:05.418Z,13.29
2017-08-29T02:40:33.725Z,13.18
2017-08-29T02:43:02.040Z,12.99
2017-08-29T02:45:30.360Z,12.91
2017-08-29T02:47:58.690Z,12.79
2017-08-29T02:50:27.100Z,12.67
2017-08-29T02:52:55.418Z,12.68
2017-08-29T02:55:23.709Z,12.71
2017-08-29T02:57:52.022Z,12.73
2017-08-29T03:00:20.322Z,12.75
2017-08-29T03:02:48.665Z,12.74
2017-08-29T03:05:16.961Z,12.80
2017-08-29T03:07:45.294Z,12.86
2017-08-29T03:10:13.615Z,12.90
2017-08-29T03:12:41.909Z,12.90
2017-08-29T03:15:10.214Z,12.90
2017-08-29T03:17:38.508Z,12.87
2017-08-29T03:20:06.817Z,12.89
2017-08-29T03:22:35.112Z,12.86
2017-08-29T03:25:03.414Z,12.92
2017-08-29T03:27:31.708Z,12.93
2017-08-29T03:30:00.021Z,12.97
2017-08-29T03:32:28.333Z,13.01
2017-08-29T03:34:56.625Z,13.04
2017-08-29T03:37:24.936Z,13.04
2017-08-29T03:39:53.237Z,12.97
2017-08-29T03:42:21.545Z,12.98
2017-08-29T03:44:49.841Z,12.97
2017-08-29T03:47:18.164Z,12.95
2017-08-29T03:49:46.462Z,13.01
2017-08-29T03:52:14.777Z,13.03
2017-08-29T03:54:43.071Z,12.98
2017-08-29T03:57:11.393Z,12.96
2017-08-29T03:59:39.694Z,12.91
2017-08-29T04:02:08.040Z,12.93
2017-08-29T04:04:36.340Z,12.95
2017-08-29T04:07:04.646Z,12.88
2017-08-29T04:09:32.968Z,12.90
2017-08-29T04:12:01.273Z,12.90
2017-08-29T04:14:29.585Z,12.88
2017-08-29T04:16:57.876Z,12.89
2017-08-29T04:19:26.194Z,12.92
2017-08-29T04:21:54.480Z,12.94
2017-08-29T04:24:22.787Z,12.91
2017-08-29T04:26:51.101Z,12.90
2017-08-29T04:29:19.410Z,12.89
2017-08-29T04:31:47.722Z,12.85
2017-08-29T04:34:16.026Z,12.72
2017-08-29T04:36:44.329Z,12.68
2017-08-29T04:39:12.638Z,12.73
2017-08-29T04:41:40.940Z,12.76
2017-08-29T04:44:09.241Z,12.86
2017-08-29T04:46:37.550Z,12.91
2017-08-29T04:49:05.843Z,12.95
2017-08-29T04:51:34.175Z,13.11
2017-08-29T04:54:02.481Z,13.20
2017-08-29T04:56:30.785Z,13.28
2017-08-29T04:58:59.120Z,13.43
2017-08-29T05:01:27.425Z,13.54
2017-08-29T05:03:55.736Z,13.65
2017-08-29T05:06:24.029Z,13.74
2017-08-29T05:08:52.343Z,13.77
2017-08-29T05:11:20.669Z,13.88
2017-08-29T05:13:48.979Z,14.02
2017-08-29T05:16:17.285Z,14.10
2017-08-29T05:18:45.620Z,14.16
2017-08-29T05:21:14.006Z,14.22
2017-08-29T05:23:42.304Z,14.21
2017-08-29T05:26:10.609Z,14.32
2017-08-29T05:28:38.905Z,14.44
2017-08-29T05:31:07.253Z,14.60
2017-08-29T05:33:35.549Z,14.59
2017-08-29T05:36:03.888Z,14.66
2017-08-29T05:38:32.191Z,14.72
2017-08-29T05:41:00.511Z,14.77
2017-08-29T05:43:28.804Z,14.91
2017-08-29T05:45:57.198Z,15.00
2017-08-29T05:48:25.496Z,15.13
2017-08-29T05:50:53.801Z,15.20
2017-08-29T05:53:22.110Z,15.39
2017-08-29T05:55:50.412Z,15.59
2017-08-29T05:58:18.729Z,15.79
2017-08-29T06:00:47.021Z,15.88
2017-08-29T06:03:15.330Z,16.09
2017-08-29T06:05:43.638Z,16.28
2017-08-29T06:08:11.949Z,16.30
2017-08-29T06:10:40.276Z,16.37
2017-08-29T06:13:08.593Z,16.63
2017-08-29T06:15:36.906Z,16.81
2017-08-29T06:18:05.240Z,16.98
2017-08-29T06:20:33.535Z,17.03
2017-08-29T06:23:01.837Z,17.21
2017-08-29T06:25:30.145Z,17.28
2017-08-29T06:27:58.469Z,17.31
2017-08-29T06:30:26.795Z,17.48
2017-08-29T06:32:55.102Z,17.45
2017-08-29T06:35:23.417Z,17.55
2017-08-29T06:37:51.741Z,17.62
2017-08-29T06:40:20.052Z,17.88
2017-08-29T06:42:48.346Z,18.09
2017-08-29T06:45:16.685Z,18.21
2017-08-29T06:47:44.994Z,18.39
2017-08-29T06:50:13.321Z,18.44
2017-08-29T06:52:41.633Z,18.63
2017-08-29T06:55:09.977Z,18.86
2017-08-29T06:57:38.264Z,18.92
2017-08-29T07:00:06.568Z,19.00
2017-08-29T07:02:34.909Z,19.15
2017-08-29T07:05:03.205Z,19.30
2017-08-29T07:07:31.533Z,19.48
2017-08-29T07:09:59.834Z,19.47
2017-08-29T07:12:28.148Z,19.54
2017-08-29T07:14:56.436Z,19.70
2017-08-29T07:17:24.745Z,19.84
2017-08-29T07:19:53.041Z,19.99
2017-08-29T07:22:21.353Z,20.37
2017-08-29T07:24:49.649Z,20.45
2017-08-29T07:27:17.978Z,20.33
2017-08-29T07:29:46.272Z,20.32
2017-08-29T07:32:14.572Z,20.39
2017-08-29T07:34:42.872Z,20.65
2017-08-29T07:37:11.176Z,20.83
2017-08-29T07:39:39.492Z,21.00
2017-08-29T07:42:07.792Z,21.05
2017-08-29T07:44:36.088Z,21.04
2017-08-29T07:47:04.394Z,21.17
2017-08-29T07:49:32.712Z,21.19
2017-08-29T07:52:01.041Z,21.40
2017-08-29T07:54:29.364Z,21.61
2017-08-29T07:56:57.666Z,21.87
2017-08-29T07:59:26.007Z,22.01
2017-08-29T08:01:54.299Z,22.16
2017-08-29T08:04:22.598Z,22.25
2017-08-29T08:06:50.914Z,22.40
2017-08-29T08:09:19.214Z,22.43
2017-08-29T08:11:47.534Z,22.59
2017-08-29T08:14:15.849Z,22.64
2017-08-29T08:16:44.156Z,22.93
2017-08-29T08:19:12.463Z,23.15
2017-08-29T08:21:40.769Z,23.33
2017-08-29T08:24:09.097Z,23.14
2017-08-29T08:26:37.398Z,23.46
2017-08-29T08:29:05.713Z,23.57
2017-08-29T08:31:34.021Z,23.80
2017-08-29T08:34:02.330Z,24.01
2017-08-29T08:36:30.624Z,24.13
2017-08-29T08:38:58.945Z,23.85
2017-08-29T08:41:27.240Z,23.93
2017-08-29T08:43:55.550Z,23.95
2017-08-29T08:46:23.863Z,24.40
2017-08-29T08:48:52.161Z,24.59
2017-08-29T08:51:20.478Z,24.77
2017-08-29T08:53:48.777Z,24.83
2017-08-29T08:56:17.085Z,24.89
2017-08-29T08:58:45.396Z,24.86
2017-08-29T09:01:13.723Z,25.03
2017-08-29T09:03:42.014Z,25.25
2017-08-29T09:06:10.327Z,25.43
2017-08-29T09:08:38.647Z,25.57
2017-08-29T09:11:06.985Z,25.72
2017-08-29T09:13:35.316Z,26.14
2017-08-29T09:16:03.613Z,26.58
2017-08-29T09:18:31.917Z,28.48
2017-08-29T09:21:00.240Z,32.12
2017-08-29T09:23:28.573Z,34.46
2017-08-29T09:25:56.872Z,35.54
2017-08-29T09:28:25.187Z,37.17
2017-08-29T09:30:53.562Z,37.70
2017-08-29T09:33:21.839Z,39.31
2017-08-29T09:35:50.167Z,37.76
2017-08-29T09:38:18.476Z,38.54
2017-08-29T09:40:46.793Z,38.94
2017-08-29T09:43:15.100Z,39.40
2017-08-29T09:45:43.467Z,37.30
2017-08-29T09:48:11.803Z,36.08
2017-08-29T09:50:40.113Z,38.93
2017-08-29T09:53:08.407Z,39.47
2017-08-29T09:55:36.729Z,36.34
2017-08-29T09:58:05.035Z,37.58
2017-08-29T10:00:33.370Z,38.23
2017-08-29T10:03:01.671Z,38.88
2017-08-29T10:05:29.964Z,38.61
2017-08-29T10:07:58.285Z,38.09
2017-08-29T10:10:26.595Z,37.97
2017-08-29T10:12:54.937Z,38.31
2017-08-29T10:15:23.245Z,36.81
2017-08-29T10:17:51.550Z,37.36
2017-08-29T10:20:19.863Z,36.48
2017-08-29T10:22:48.168Z,37.81
2017-08-29T10:25:16.474Z,37.59
2017-08-29T10:27:44.785Z,37.15
2017-08-29T10:30:13.129Z,36.50
2017-08-29T10:32:41.453Z,37.29
2017-08-29T10:35:09.777Z,37.77
2017-08-29T10:37:38.069Z,37.51
2017-08-29T10:40:06.379Z,36.26
2017-08-29T10:42:34.689Z,37.38
2017-08-29T10:45:02.981Z,36.47
2017-08-29T10:47:31.278Z,36.05
2017-08-29T10:49:59.590Z,37.12
2017-08-29T10:52:28.725Z,35.42
2017-08-29T10:54:57.026Z,36.12
2017-08-29T10:57:25.342Z,36.47
2017-08-29T10:59:53.637Z,36.02
2017-08-29T11:02:21.944Z,34.75
2017-08-29T11:04:50.249Z,35.55
2017-08-29T11:07:18.553Z,35.45
2017-08-29T11:09:46.865Z,35.97
2017-08-29T11:12:15.169Z,34.75
2017-08-29T11:14:43.477Z,34.73
2017-08-29T11:17:11.786Z,34.34
2017-08-29T11:19:40.093Z,33.15
2017-08-29T11:22:08.401Z,31.68
2017-08-29T11:24:36.721Z,30.44
2017-08-29T11:27:05.042Z,29.91
2017-08-29T11:29:33.402Z,30.08
2017-08-29T11:32:01.718Z,30.14
2017-08-29T11:34:30.024Z,29.90
2017-08-29T11:36:58.343Z,30.41
2017-08-29T11:39:26.664Z,30.64
2017-08-29T11:41:54.982Z,31.35
2017-08-29T11:44:23.355Z,31.77
2017-08-29T11:46:51.657Z,31.31
2017-08-29T11:49:19.973Z,30.52
2017-08-29T11:51:48.276Z,30.21
2017-08-29T11:54:16.573Z,29.89
2017-08-29T11:56:44.905Z,29.76
2017-08-29T11:59:13.200Z,30.01
2017-08-29T12:01:41.518Z,30.18
2017-08-29T12:04:09.812Z,30.17
2017-08-29T12:06:38.120Z,30.44
2017-08-29T12:09:06.444Z,30.29
2017-08-29T12:11:34.749Z,30.55
2017-08-29T12:14:03.157Z,30.63
2017-08-29T12:16:31.492Z,30.52
2017-08-29T12:18:59.794Z,30.52
2017-08-29T12:21:28.109Z,30.86
2017-08-29T12:23:56.410Z,31.39
2017-08-29T12:26:24.733Z,30.81
2017-08-29T12:28:53.134Z,30.96
2017-08-29T12:31:21.437Z,31.10
2017-08-29T12:33:49.776Z,31.58
2017-08-29T12:36:18.080Z,31.45
2017-08-29T12:38:46.384Z,31.85
2017-08-29T12:41:14.693Z,31.85
2017-08-29T12:43:43.009Z,32.07
2017-08-29T12:46:11.323Z,31.77
2017-08-29T12:48:39.641Z,32.22
2017-08-29T12:51:07.946Z,32.09
2017-08-29T12:53:36.258Z,32.14
2017-08-29T12:56:04.561Z,32.41
2017-08-29T12:58:32.885Z,32.18
2017-08-29T13:01:01.184Z,32.93
2017-08-29T13:03:29.481Z,32.85
2017-08-29T13:05:57.780Z,32.81
2017-08-29T13:08:26.081Z,33.01
2017-08-29T13:10:54.408Z,33.32
2017-08-29T13:13:22.714Z,32.73
2017-08-29T13:15:51.008Z,33.53
2017-08-29T13:18:19.334Z,33.37
2017-08-29T13:20:47.638Z,32.91
2017-08-29T13:23:15.944Z,33.00
2017-08-29T13:25:44.253Z,33.10
2017-08-29T13:28:12.557Z,33.25
2017-08-29T13:30:40.865Z,33.38
2017-08-29T13:33:09.187Z,33.39
2017-08-29T13:35:37.493Z,33.62
2017-08-29T13:38:05.833Z,34.02
2017-08-29T13:40:34.149Z,33.76
2017-08-29T13:43:02.453Z,33.70
2017-08-29T13:45:30.784Z,34.16
2017-08-29T13:47:59.086Z,34.35
2017-08-29T13:50:27.385Z,34.00
2017-08-29T13:52:55.705Z,33.67
2017-08-29T13:55:24.006Z,33.69
2017-08-29T13:57:52.306Z,33.14
2017-08-29T14:00:20.621Z,33.24
2017-08-29T14:02:48.925Z,33.71
2017-08-29T14:05:17.224Z,33.77
2017-08-29T14:07:45.543Z,33.72
2017-08-29T14:10:13.859Z,33.73
2017-08-29T14:12:42.157Z,33.82
2017-08-29T14:15:10.460Z,33.80
2017-08-29T14:17:38.777Z,33.36
2017-08-29T14:20:07.074Z,33.28
2017-08-29T14:22:35.373Z,33.15
2017-08-29T14:25:03.678Z,33.13
2017-08-29T14:27:31.974Z,33.29
2017-08-29T14:30:00.315Z,33.46
2017-08-29T14:32:28.637Z,33.24
2017-08-29T14:34:56.938Z,32.84
2017-08-29T14:37:25.244Z,32.60
2017-08-29T14:39:53.549Z,32.75
2017-08-29T14:42:21.857Z,32.95
2017-08-29T14:44:50.166Z,32.88
2017-08-29T14:47:36.238Z,32.87
2017-08-29T14:50:04.545Z,32.71
2017-08-29T14:52:32.838Z,32.55
2017-08-29T14:55:01.173Z,32.26
2017-08-29T14:57:29.477Z,32.35
2017-08-29T14:59:57.776Z,32.22
2017-08-29T15:02:26.092Z,32.16
2017-08-29T15:04:54.401Z,31.83
2017-08-29T15:07:22.750Z,31.86
2017-08-29T15:09:51.057Z,31.98
2017-08-29T15:12:19.379Z,31.90
2017-08-29T15:14:47.690Z,31.70
2017-08-29T15:17:15.984Z,31.66
2017-08-29T15:19:44.322Z,31.55
2017-08-29T15:22:12.646Z,31.71
2017-08-29T15:24:40.952Z,31.61
2017-08-29T15:27:09.260Z,31.53
2017-08-29T15:29:37.548Z,31.75
2017-08-29T15:32:05.868Z,31.33
2017-08-29T15:34:34.177Z,31.39
2017-08-29T15:37:02.470Z,31.56
2017-08-29T15:39:30.772Z,31.36
2017-08-29T15:41:59.073Z,31.45
2017-08-29T15:44:27.401Z,31.20
2017-08-29T15:46:55.724Z,31.13
2017-08-29T15:49:24.362Z,30.73
2017-08-29T15:51:52.696Z,30.76
2017-08-29T15:54:21.019Z,30.57
2017-08-29T15:56:49.446Z,30.67
2017-08-29T15:59:17.777Z,30.60
2017-08-29T16:01:46.072Z,30.65
2017-08-29T16:04:15.218Z,30.53
2017-08-29T16:06:43.529Z,30.27
2017-08-29T16:09:11.866Z,30.20
2017-08-29T16:11:40.164Z,30.25
2017-08-29T16:14:08.530Z,30.22
2017-08-29T16:16:36.845Z,30.13
2017-08-29T16:19:05.155Z,29.97
2017-08-29T16:21:33.494Z,29.85
2017-08-29T16:24:01.789Z,29.56
2017-08-29T16:26:30.095Z,29.54
2017-08-29T16:28:58.420Z,29.51
2017-08-29T16:31:26.730Z,29.50
2017-08-29T16:33:55.076Z,29.46
2017-08-29T16:36:23.401Z,29.32
2017-08-29T16:38:51.707Z,29.23
2017-08-29T16:41:20.016Z,29.10
2017-08-29T16:43:48.315Z,29.00
2017-08-29T16:46:16.645Z,28.82
2017-08-29T16:48:44.946Z,28.74
2017-08-29T16:51:13.244Z,28.65
2017-08-29T16:53:41.592Z,28.51
2017-08-29T16:56:09.900Z,28.39
2017-08-29T16:58:38.244Z,28.21
2017-08-29T17:01:06.542Z,28.11
2017-08-29T17:03:34.843Z,27.95
2017-08-29T17:06:03.154Z,27.80
2017-08-29T17:08:31.457Z,27.72
2017-08-29T17:10:59.773Z,27.61
2017-08-29T17:13:28.062Z,27.48
2017-08-29T17:15:56.362Z,27.31
2017-08-29T17:18:24.674Z,27.13
2017-08-29T17:20:52.969Z,26.99
2017-08-29T17:23:21.308Z,26.84
2017-08-29T17:25:49.596Z,26.73
2017-08-29T17:28:17.897Z,26.60
2017-08-29T17:30:46.206Z,26.47
2017-08-29T17:33:14.509Z,26.34
2017-08-29T17:35:42.841Z,26.19
2017-08-29T17:38:11.150Z,26.08
2017-08-29T17:40:39.453Z,25.98
2017-08-29T17:43:07.838Z,25.86
2017-08-29T17:45:36.149Z,25.72
2017-08-29T17:48:05.019Z,25.62
2017-08-29T17:50:33.329Z,25.50
2017-08-29T17:53:01.646Z,25.41
2017-08-29T17:55:30.754Z,25.32
2017-08-29T17:57:59.046Z,25.20
2017-08-29T18:00:27.373Z,25.08
2017-08-29T18:02:55.668Z,24.96
2017-08-29T18:05:23.964Z,24.82
2017-08-29T18:07:52.261Z,24.70
2017-08-29T18:10:20.574Z,24.60
2017-08-29T18:12:48.880Z,24.49
2017-08-29T18:15:17.186Z,24.34
2017-08-29T18:17:45.489Z,24.25
2017-08-29T18:20:13.788Z,24.15
2017-08-29T18:22:42.089Z,24.07
2017-08-29T18:25:10.418Z,23.97
2017-08-29T18:27:38.725Z,23.85
2017-08-29T18:30:07.016Z,23.77
2017-08-29T18:32:35.338Z,23.66
2017-08-29T18:35:03.629Z,23.56
2017-08-29T18:37:31.934Z,23.41
2017-08-29T18:40:00.233Z,23.32
2017-08-29T18:42:28.565Z,23.20
2017-08-29T18:44:56.859Z,23.10
2017-08-29T18:47:25.237Z,23.09
2017-08-29T18:49:53.546Z,23.12
2017-08-29T18:52:21.854Z,23.09
2017-08-29T18:54:50.159Z,23.04
2017-08-29T18:57:18.485Z,23.01
2017-08-29T18:59:46.788Z,23.07
2017-08-29T19:02:15.093Z,23.09
2017-08-29T19:04:43.396Z,23.10
2017-08-29T19:07:11.706Z,23.02
2017-08-29T19:09:40.019Z,22.87
2017-08-29T19:12:08.327Z,22.78
2017-08-29T19:14:36.620Z,22.71
2017-08-29T19:17:04.928Z,22.61
2017-08-29T19:19:33.245Z,22.53
2017-08-29T19:22:01.540Z,22.48
2017-08-29T19:24:29.842Z,22.41
2017-08-29T19:26:58.166Z,22.34
2017-08-29T19:29:26.465Z,22.28
2017-08-29T19:31:54.774Z,22.24
2017-08-29T19:34:23.093Z,22.18
2017-08-29T19:36:51.401Z,22.18
2017-08-29T19:39:19.713Z,22.16
2017-08-29T19:41:48.046Z,22.14
2017-08-29T19:44:16.345Z,22.09
2017-08-29T19:46:44.677Z,22.01
2017-08-29T19:49:12.981Z,21.94
2017-08-29T19:51:41.291Z,21.85
2017-08-29T19:54:09.606Z,21.80
2017-08-29T19:56:37.898Z,21.77
2017-08-29T19:59:06.224Z,21.68
2017-08-29T20:01:34.522Z,21.64
2017-08-29T20:04:02.858Z,21.61
2017-08-29T20:06:31.181Z,21.54
2017-08-29T20:08:59.497Z,21.54
2017-08-29T20:11:27.813Z,21.51
2017-08-29T20:13:56.142Z,21.47
2017-08-29T20:16:24.432Z,21.39
2017-08-29T20:18:52.742Z,21.32
2017-08-29T20:21:21.074Z,21.25
2017-08-29T20:23:49.370Z,21.14
2017-08-29T20:26:17.677Z,21.05
2017-08-29T20:28:45.984Z,21.05
2017-08-29T20:31:14.291Z,21.13
2017-08-29T20:33:42.610Z,21.21
2017-08-29T20:36:10.921Z,21.30
2017-08-29T20:38:39.221Z,21.38
2017-08-29T20:41:07.810Z,21.38
2017-08-29T20:43:36.136Z,21.44
2017-08-29T20:46:04.430Z,21.47
2017-08-29T20:48:32.741Z,21.45
2017-08-29T20:51:01.136Z,21.34
2017-08-29T20:53:29.462Z,21.20
2017-08-29T20:55:57.774Z,21.13
2017-08-29T20:58:26.082Z,21.09
2017-08-29T21:00:54.393Z,21.05
2017-08-29T21:03:22.722Z,21.00
2017-08-29T21:05:51.043Z,20.90
2017-08-29T21:08:19.341Z,20.75
2017-08-29T21:10:47.641Z,20.64
2017-08-29T21:13:15.952Z,20.53
2017-08-29T21:15:44.260Z,20.44
2017-08-29T21:18:12.590Z,20.36
2017-08-29T21:20:40.907Z,20.34
2017-08-29T21:23:09.202Z,20.33
2017-08-29T21:25:37.496Z,20.33
2017-08-29T21:28:05.806Z,20.29
2017-08-29T21:30:34.113Z,20.26
2017-08-29T21:33:02.439Z,20.23
2017-08-29T21:35:30.777Z,20.16
2017-08-29T21:37:59.076Z,20.07
2017-08-29T21:40:27.373Z,20.05
2017-08-29T21:42:55.720Z,20.02
2017-08-29T21:45:24.040Z,19.97
2017-08-29T21:47:52.338Z,19.92
2017-08-29T21:50:20.661Z,19.88
2017-08-29T21:52:48.961Z,19.90
2017-08-29T21:55:17.267Z,19.83
2017-08-29T21:57:45.589Z,19.77
2017-08-29T22:00:13.880Z,19.83
2017-08-29T22:02:42.181Z,19.73
2017-08-29T22:05:10.533Z,19.66
2017-08-29T22:07:38.874Z,19.61
2017-08-29T22:10:07.173Z,19.59
2017-08-29T22:12:35.490Z,19.60
2017-08-29T22:15:03.805Z,19.55
2017-08-29T22:17:32.104Z,19.55
2017-08-29T22:20:00.450Z,19.53
2017-08-29T22:22:28.746Z,19.52
2017-08-29T22:24:57.045Z,19.52
2017-08-29T22:27:25.368Z,19.49
2017-08-29T22:29:53.677Z,19.51
2017-08-29T22:32:21.977Z,19.50
2017-08-29T22:34:50.312Z,19.44
2017-08-29T22:37:18.613Z,19.42
2017-08-29T22:39:46.920Z,19.38
2017-08-29T22:42:15.249Z,19.26
2017-08-29T22:44:43.552Z,19.20
2017-08-29T22:47:11.848Z,19.20
2017-08-29T22:49:40.168Z,19.19
2017-08-29T22:52:08.468Z,19.18
2017-08-29T22:54:36.764Z,19.11
2017-08-29T22:57:05.093Z,19.05
2017-08-29T22:59:33.393Z,19.03
2017-08-29T23:02:01.699Z,18.97
2017-08-29T23:04:30.034Z,18.94
2017-08-29T23:06:58.388Z,18.89
2017-08-29T23:09:26.687Z,18.92
2017-08-29T23:11:55.018Z,18.90
2017-08-29T23:14:23.343Z,18.84
2017-08-29T23:16:51.653Z,18.77
2017-08-29T23:19:20.001Z,18.76
2017-08-29T23:21:48.300Z,18.72
2017-08-29T23:24:16.612Z,18.74
2017-08-29T23:26:44.961Z,18.74
2017-08-29T23:29:13.274Z,18.71
2017-08-29T23:31:41.582Z,18.67
2017-08-29T23:34:09.914Z,18.63
2017-08-29T23:36:38.213Z,18.63
2017-08-29T23:39:06.506Z,18.66
2017-08-29T23:41:34.837Z,18.67
2017-08-29T23:44:03.154Z,18.66
2017-08-29T23:46:31.509Z,18.64
2017-08-29T23:48:59.850Z,18.63
2017-08-29T23:51:28.171Z,18.66
2017-08-29T23:53:56.485Z,18.62
2017-08-29T23:56:24.822Z,18.63
2017-08-29T23:58:53.212Z,18.61
